Time;durP1;ratioP1;P1;durP2;ratioP2;P2;SDS_P1;SDS_P2;PMS_P1;PMS_P2;Temp;Humidity;BMP_temperature;BMP_pressure;BME280_temperature;BME280_humidity;BME280_pressure;Samples;Min_cycle;Max_cycle;Signal;HPM_P1;HPM_P2
2022/01/16 00:00:20;;;;;;;61.55;30.75;;;2.00;96.20;;;;;;5140144;27;20038;-79
2022/01/16 00:05:29;;;;;;;71.78;33.05;;;2.00;96.40;;;;;;5141954;27;20042;-79
2022/01/16 00:07:56;;;;;;;66.53;30.92;;;2.00;96.40;;;;;;5140638;27;20069;-79
2022/01/16 00:10:24;;;;;;;67.28;30.58;;;1.90;96.50;;;;;;5157490;27;20393;-79
2022/01/16 00:12:49;;;;;;;75.07;32.85;;;1.90;96.50;;;;;;5139927;27;20042;-79
2022/01/16 00:15:16;;;;;;;73.88;32.80;;;1.80;96.50;;;;;;5122833;27;20083;-79
2022/01/16 00:17:53;;;;;;;74.13;35.30;;;1.80;96.60;;;;;;5122848;27;20121;-79
2022/01/16 00:20:20;;;;;;;74.65;38.00;;;1.80;96.60;;;;;;5124816;27;20424;-79
2022/01/16 00:22:47;;;;;;;74.68;36.05;;;1.80;96.60;;;;;;5157254;27;20026;-79
2022/01/16 00:25:13;;;;;;;78.13;35.33;;;1.80;96.60;;;;;;5122854;27;20026;-79
2022/01/16 00:27:38;;;;;;;85.55;38.53;;;1.80;96.70;;;;;;5157430;27;20041;-79
2022/01/16 00:30:05;;;;;;;74.32;34.67;;;1.80;96.70;;;;;;5157103;27;20042;-79
2022/01/16 00:32:30;;;;;;;80.88;36.25;;;1.70;96.70;;;;;;5139322;27;20050;-79
2022/01/16 00:34:56;;;;;;;81.93;36.20;;;1.80;96.90;;;;;;5156812;27;20034;-79
2022/01/16 00:37:22;;;;;;;76.90;34.95;;;1.80;96.80;;;;;;5156370;27;20054;-79
2022/01/16 00:39:48;;;;;;;87.95;37.95;;;1.80;96.90;;;;;;5139742;27;20049;-79
2022/01/16 00:42:14;;;;;;;72.07;35.85;;;1.80;97.00;;;;;;5156757;27;20061;-79
2022/01/16 00:44:39;;;;;;;81.78;35.67;;;1.80;96.90;;;;;;5139438;27;20038;-79
2022/01/16 00:47:05;;;;;;;87.18;37.22;;;1.90;96.90;;;;;;5122671;27;20074;-79
2022/01/16 00:49:34;;;;;;;87.28;36.20;;;1.90;97.00;;;;;;5139672;27;20038;-79
2022/01/16 00:52:00;;;;;;;86.45;38.50;;;1.90;97.00;;;;;;5159900;27;20042;-79
2022/01/16 00:54:26;;;;;;;89.30;36.97;;;2.00;97.00;;;;;;5126447;27;20034;-79
2022/01/16 00:56:51;;;;;;;90.65;37.83;;;2.00;97.00;;;;;;5143081;27;20042;-79
2022/01/16 00:59:17;;;;;;;97.80;38.33;;;2.00;97.00;;;;;;5160650;27;20038;-79
2022/01/16 01:01:43;;;;;;;99.88;39.88;;;2.00;97.10;;;;;;5160628;27;20026;-79
2022/01/16 01:04:09;;;;;;;104.75;41.50;;;1.90;97.20;;;;;;5126341;27;20173;-79
2022/01/16 01:06:35;;;;;;;98.22;40.97;;;1.90;97.20;;;;;;5160458;27;20070;-79
2022/01/16 01:09:00;;;;;;;106.70;40.63;;;1.90;97.30;;;;;;5143525;27;20034;-79
2022/01/16 01:11:28;;;;;;;90.20;37.70;;;1.90;97.40;;;;;;5143424;27;20093;-79
2022/01/16 01:16:37;;;;;;;102.40;40.45;;;2.00;97.50;;;;;;5160513;27;20081;-80
2022/01/16 01:19:03;;;;;;;99.65;40.83;;;2.00;97.50;;;;;;5143129;27;20082;-79
2022/01/16 01:21:30;;;;;;;99.68;39.28;;;2.00;97.50;;;;;;5142905;27;20045;-79
2022/01/16 01:23:58;;;;;;;118.13;43.63;;;2.10;97.40;;;;;;5126247;27;20043;-79
2022/01/16 01:26:29;;;;;;;113.82;46.95;;;2.10;97.50;;;;;;5142688;27;20034;-79
2022/01/16 01:28:54;;;;;;;114.35;43.75;;;2.10;97.50;;;;;;5160467;27;20514;-79
2022/01/16 01:31:20;;;;;;;142.05;46.67;;;2.10;97.60;;;;;;5160052;27;20083;-79
2022/01/16 01:33:46;;;;;;;118.55;44.58;;;2.10;97.60;;;;;;5160026;27;20042;-79
2022/01/16 01:36:12;;;;;;;122.50;43.70;;;2.10;97.60;;;;;;5142718;27;20425;-79
2022/01/16 01:38:38;;;;;;;122.65;44.08;;;2.10;97.70;;;;;;5159891;27;20642;-79
2022/01/16 01:41:03;;;;;;;129.00;47.95;;;2.10;97.70;;;;;;5143244;27;20120;-79
2022/01/16 01:51:33;;;;;;;134.13;47.30;;;2.10;97.90;;;;;;5159955;27;20656;-79
2022/01/16 01:54:00;;;;;;;147.88;51.58;;;2.20;97.90;;;;;;5142400;27;20046;-79
2022/01/16 01:56:27;;;;;;;161.18;50.03;;;2.20;98.10;;;;;;5160143;27;20041;-79
2022/01/16 01:58:55;;;;;;;175.18;53.42;;;2.20;98.10;;;;;;5159458;27;20035;-79
2022/01/16 02:01:22;;;;;;;161.98;52.58;;;2.30;98.00;;;;;;5159246;27;20046;-79
2022/01/16 02:03:49;;;;;;;193.52;54.13;;;2.30;98.20;;;;;;5142105;27;20049;-79
2022/01/16 02:06:19;;;;;;;218.98;71.13;;;2.30;98.30;;;;;;5159320;27;20094;-79
2022/01/16 02:08:51;;;;;;;206.88;53.28;;;2.20;98.50;;;;;;5142399;27;20371;-79
2022/01/16 02:11:18;;;;;;;182.50;59.22;;;2.30;98.70;;;;;;5159585;27;20386;-79
2022/01/16 02:28:06;;;;;;;233.98;59.95;;;2.40;98.70;;;;;;5158964;27;20125;-79
2022/01/16 02:31:13;;;;;;;193.88;59.58;;;2.40;98.80;;;;;;5158892;27;20046;-79
2022/01/16 02:34:30;;;;;;;242.25;58.85;;;2.40;98.50;;;;;;5145498;27;20500;-79
2022/01/16 02:36:34;;;;;;;225.32;57.47;;;2.50;98.70;;;;;;5158263;27;20062;-79
2022/01/16 02:39:13;;;;;;;277.27;62.85;;;2.40;98.90;;;;;;5158908;27;20103;-79
2022/01/16 02:41:40;;;;;;;228.98;62.97;;;2.50;98.90;;;;;;5159049;27;20078;-79
2022/01/16 02:46:44;;;;;;;258.73;61.45;;;2.50;98.90;;;;;;5158818;27;20046;-79
2022/01/16 02:49:18;;;;;;;212.32;63.40;;;2.50;99.00;;;;;;5141976;27;20086;-79
2022/01/16 02:51:44;;;;;;;186.65;57.47;;;2.60;99.00;;;;;;5158736;27;20395;-79
2022/01/16 02:54:09;;;;;;;237.25;64.30;;;2.60;98.90;;;;;;5158430;27;20038;-79
2022/01/16 02:56:37;;;;;;;253.45;62.33;;;2.60;98.80;;;;;;5141362;27;20034;-79
2022/01/16 02:59:03;;;;;;;236.40;64.28;;;2.60;98.80;;;;;;5158135;27;20509;-79
2022/01/16 03:01:28;;;;;;;263.15;70.93;;;2.60;98.70;;;;;;5140837;27;20273;-79
2022/01/16 03:03:54;;;;;;;224.95;62.50;;;2.60;98.70;;;;;;5123912;27;20030;-79
2022/01/16 03:06:20;;;;;;;211.43;61.50;;;2.60;98.80;;;;;;5141249;27;20041;-79
2022/01/16 03:08:45;;;;;;;218.23;62.50;;;2.60;98.90;;;;;;5123707;27;20030;-79
2022/01/16 03:11:24;;;;;;;247.85;63.97;;;2.60;99.00;;;;;;5140841;27;20042;-79
2022/01/16 03:13:50;;;;;;;208.88;60.67;;;2.60;99.00;;;;;;5140225;27;20045;-79
2022/01/16 03:16:18;;;;;;;204.15;60.28;;;2.70;99.10;;;;;;5158543;27;20034;-79
2022/01/16 03:24:13;;;;;;;211.20;64.50;;;2.80;99.00;;;;;;5157888;27;20034;-79
2022/01/16 03:26:38;;;;;;;190.50;59.80;;;2.90;98.80;;;;;;5123360;27;20037;-79
2022/01/16 03:29:04;;;;;;;204.77;61.13;;;2.90;98.70;;;;;;5157803;27;20042;-79
2022/01/16 03:31:30;;;;;;;230.02;67.22;;;3.00;98.90;;;;;;5157822;27;20034;-79
2022/01/16 03:33:56;;;;;;;206.00;63.80;;;3.00;98.60;;;;;;5140066;27;20145;-79
2022/01/16 03:36:22;;;;;;;201.25;63.08;;;3.00;98.80;;;;;;5157223;27;20065;-79
2022/01/16 03:38:47;;;;;;;195.68;61.08;;;3.10;98.70;;;;;;5157250;27;20050;-79
2022/01/16 03:41:13;;;;;;;180.98;59.92;;;3.20;98.70;;;;;;5140409;27;20037;-79
2022/01/16 03:43:39;;;;;;;180.50;59.90;;;3.20;98.60;;;;;;5157314;27;20042;-79
2022/01/16 03:46:05;;;;;;;180.35;60.65;;;3.30;98.70;;;;;;5123358;27;20092;-79
2022/01/16 03:48:31;;;;;;;187.60;60.72;;;3.30;98.70;;;;;;5140161;27;20539;-79
2022/01/16 03:50:57;;;;;;;174.00;59.65;;;3.30;98.90;;;;;;5123401;27;20034;-79
2022/01/16 03:53:23;;;;;;;175.00;56.88;;;3.40;98.70;;;;;;5157315;27;20037;-79
2022/01/16 03:55:49;;;;;;;170.52;55.85;;;3.40;98.60;;;;;;5157339;27;20038;-79
2022/01/16 03:58:15;;;;;;;169.38;56.20;;;3.40;98.70;;;;;;5123004;27;20655;-79
2022/01/16 04:00:41;;;;;;;185.55;59.53;;;3.40;98.60;;;;;;5105977;27;20038;-79
2022/01/16 04:03:07;;;;;;;171.23;62.35;;;3.50;98.90;;;;;;5140351;27;20034;-79
2022/01/16 04:05:32;;;;;;;173.25;61.08;;;3.50;98.80;;;;;;5122823;27;20389;-79
2022/01/16 04:07:59;;;;;;;176.88;59.53;;;3.50;98.70;;;;;;5123261;27;20046;-79
2022/01/16 04:10:25;;;;;;;179.15;61.83;;;3.50;98.60;;;;;;5140048;27;20051;-79
2022/01/16 04:12:51;;;;;;;144.98;55.13;;;3.60;98.60;;;;;;5157823;27;20381;-79
2022/01/16 04:17:46;;;;;;;176.35;58.22;;;3.60;98.80;;;;;;5157514;27;20042;-79
2022/01/16 04:20:16;;;;;;;171.07;60.20;;;3.60;98.80;;;;;;5140455;27;20039;-79
2022/01/16 04:22:45;;;;;;;184.15;62.47;;;3.60;98.80;;;;;;5139883;27;20070;-80
2022/01/16 04:25:11;;;;;;;163.15;62.92;;;3.60;98.80;;;;;;5157370;27;20416;-80
2022/01/16 04:27:37;;;;;;;166.18;56.47;;;3.60;98.80;;;;;;5144008;27;20469;-80
2022/01/16 04:30:04;;;;;;;161.20;56.45;;;3.60;98.80;;;;;;5143919;27;20071;-79
2022/01/16 04:32:30;;;;;;;170.55;58.03;;;3.60;98.80;;;;;;5161242;27;20042;-79
2022/01/16 04:34:56;;;;;;;163.70;55.72;;;3.70;98.80;;;;;;5143908;27;20045;-80
2022/01/16 04:37:21;;;;;;;168.13;59.42;;;3.70;98.70;;;;;;5143636;27;20050;-80
2022/01/16 04:39:52;;;;;;;155.98;56.90;;;3.80;98.70;;;;;;5143902;27;20504;-80
2022/01/16 04:45:04;;;;;;;160.45;55.42;;;3.80;98.80;;;;;;5161155;27;20037;-79
2022/01/16 04:47:30;;;;;;;158.32;57.20;;;3.80;98.80;;;;;;5160953;27;20053;-79
2022/01/16 04:49:56;;;;;;;158.18;59.58;;;3.80;98.90;;;;;;5160923;27;20079;-79
2022/01/16 04:52:22;;;;;;;170.95;60.67;;;3.90;98.80;;;;;;5160780;27;20070;-79
2022/01/16 04:54:48;;;;;;;184.10;64.82;;;3.90;98.80;;;;;;5160897;27;20045;-80
2022/01/16 04:57:13;;;;;;;176.57;59.60;;;3.90;98.80;;;;;;5109698;27;20069;-79
2022/01/16 04:59:40;;;;;;;189.35;62.95;;;3.90;98.80;;;;;;5126356;27;20111;-79
2022/01/16 05:02:06;;;;;;;180.50;63.83;;;3.90;98.80;;;;;;5160766;27;20065;-79
2022/01/16 05:04:31;;;;;;;211.98;69.72;;;3.90;98.80;;;;;;5160564;27;20478;-79
2022/01/16 05:06:57;;;;;;;189.02;64.28;;;3.90;98.90;;;;;;5160393;27;20042;-79
2022/01/16 05:09:23;;;;;;;188.00;63.10;;;3.90;98.80;;;;;;5143075;27;20042;-79
2022/01/16 05:11:55;;;;;;;191.52;64.47;;;3.90;98.80;;;;;;5160324;27;20114;-79
2022/01/16 05:17:05;;;;;;;;;;;4.00;98.70;;;;;;5161148;27;20046;-80
2022/01/16 05:19:31;;;;;;;199.18;68.63;;;4.00;98.70;;;;;;5160476;27;20452;-79
2022/01/16 05:21:56;;;;;;;193.88;62.58;;;4.00;98.60;;;;;;5125905;27;20125;-79
2022/01/16 05:24:24;;;;;;;172.13;61.28;;;4.00;98.60;;;;;;5143290;27;20124;-79
2022/01/16 05:26:50;;;;;;;173.68;63.08;;;4.10;98.60;;;;;;5143154;27;20034;-79
2022/01/16 05:29:15;;;;;;;174.90;62.25;;;4.10;98.40;;;;;;5142847;27;20042;-79
2022/01/16 05:31:44;;;;;;;170.50;62.53;;;4.10;98.40;;;;;;5143158;27;20042;-80
2022/01/16 05:34:12;;;;;;;183.77;63.40;;;4.10;98.30;;;;;;5142806;27;20133;-79
2022/01/16 05:36:38;;;;;;;163.50;61.75;;;4.10;98.30;;;;;;5142077;27;20454;-80
2022/01/16 05:39:03;;;;;;;168.65;60.15;;;4.10;98.30;;;;;;5159684;27;20088;-79
2022/01/16 05:41:29;;;;;;;176.70;62.97;;;4.10;98.50;;;;;;5159986;27;20038;-80
2022/01/16 05:43:55;;;;;;;164.23;60.80;;;4.10;98.60;;;;;;5142593;27;20122;-79
2022/01/16 05:46:20;;;;;;;150.85;61.58;;;4.10;98.50;;;;;;5159706;27;20850;-79
2022/01/16 05:48:46;;;;;;;151.00;60.72;;;4.10;98.70;;;;;;5160023;27;20026;-79
2022/01/16 05:51:12;;;;;;;157.25;61.00;;;4.10;98.70;;;;;;5159731;27;20500;-79
2022/01/16 05:53:38;;;;;;;155.90;58.65;;;4.20;98.60;;;;;;5142701;27;20038;-79
2022/01/16 05:56:04;;;;;;;151.85;56.65;;;4.20;98.60;;;;;;5159568;27;20478;-79
2022/01/16 05:58:30;;;;;;;129.75;53.85;;;4.20;98.60;;;;;;5159553;27;20075;-79
2022/01/16 06:00:56;;;;;;;134.93;56.17;;;4.30;98.60;;;;;;5159793;27;20125;-79
2022/01/16 06:03:22;;;;;;;131.77;58.45;;;4.30;98.50;;;;;;5159736;27;20125;-79
2022/01/16 06:05:48;;;;;;;140.68;54.95;;;4.30;98.50;;;;;;5142068;27;20034;-79
2022/01/16 06:08:14;;;;;;;118.05;53.65;;;4.30;98.60;;;;;;5159449;27;20038;-79
2022/01/16 06:10:41;;;;;;;135.45;55.30;;;4.30;98.60;;;;;;5159639;27;20045;-79
2022/01/16 06:13:08;;;;;;;119.40;53.63;;;4.40;98.60;;;;;;5159324;27;20046;-79
2022/01/16 06:15:34;;;;;;;110.50;48.38;;;4.40;98.50;;;;;;5141928;27;20108;-80
2022/01/16 06:18:01;;;;;;;115.00;50.58;;;4.50;98.50;;;;;;5159217;27;20049;-79
2022/01/16 06:20:27;;;;;;;106.93;50.85;;;4.50;98.50;;;;;;5159072;27;20073;-79
2022/01/16 06:22:54;;;;;;;103.93;48.17;;;4.50;98.50;;;;;;5107554;27;20042;-79
2022/01/16 06:25:20;;;;;;;109.75;51.63;;;4.60;98.40;;;;;;5141473;27;20044;-79
2022/01/16 06:27:46;;;;;;;98.82;51.13;;;4.60;98.40;;;;;;5160596;27;20120;-80
2022/01/16 06:30:12;;;;;;;111.55;51.92;;;4.60;98.40;;;;;;5159410;27;20468;-80
2022/01/16 06:32:38;;;;;;;114.20;52.58;;;4.60;98.40;;;;;;5141889;27;20416;-79
2022/01/16 06:35:05;;;;;;;114.53;51.47;;;4.60;98.30;;;;;;5158858;27;20046;-79
2022/01/16 06:37:31;;;;;;;113.30;50.88;;;4.60;98.30;;;;;;5158323;27;20125;-80
2022/01/16 06:39:57;;;;;;;125.82;55.00;;;4.60;98.30;;;;;;5160956;27;20129;-79
2022/01/16 06:42:22;;;;;;;123.03;51.88;;;4.60;98.30;;;;;;5158987;27;20034;-79
2022/01/16 06:44:48;;;;;;;122.38;53.67;;;4.60;98.30;;;;;;5141431;27;20461;-79
2022/01/16 06:47:14;;;;;;;121.47;54.85;;;4.60;98.30;;;;;;5141354;27;20038;-80
2022/01/16 06:49:40;;;;;;;104.20;51.17;;;4.60;98.30;;;;;;5157259;27;20093;-79
2022/01/16 06:52:06;;;;;;;108.45;49.78;;;4.60;98.30;;;;;;5140843;27;20045;-79
2022/01/16 06:54:32;;;;;;;93.85;47.65;;;4.60;98.30;;;;;;5158392;27;20089;-79
2022/01/16 06:56:57;;;;;;;92.25;47.67;;;4.60;98.30;;;;;;5159883;27;20038;-79
2022/01/16 06:59:23;;;;;;;87.68;44.10;;;4.60;98.30;;;;;;5140732;27;20098;-79
2022/01/16 07:01:49;;;;;;;68.60;39.92;;;4.60;98.30;;;;;;5140721;27;20034;-79
2022/01/16 07:04:15;;;;;;;70.97;37.53;;;4.70;98.30;;;;;;5157829;27;20041;-79
2022/01/16 07:06:40;;;;;;;66.07;36.38;;;4.80;98.20;;;;;;5157782;27;20030;-79
2022/01/16 07:09:06;;;;;;;65.85;35.33;;;4.90;98.10;;;;;;5140867;27;20049;-79
2022/01/16 07:11:33;;;;;;;64.72;35.78;;;5.00;97.90;;;;;;5140798;27;20042;-79
2022/01/16 07:13:58;;;;;;;53.72;33.08;;;5.00;97.80;;;;;;5141038;27;20042;-79
2022/01/16 07:16:24;;;;;;;58.97;34.05;;;5.00;97.70;;;;;;5140774;27;20697;-79
2022/01/16 07:18:50;;;;;;;57.33;29.92;;;5.00;97.60;;;;;;5157980;27;20424;-79
2022/01/16 07:21:15;;;;;;;45.13;27.98;;;5.10;97.50;;;;;;5140787;27;20038;-79
2022/01/16 07:23:43;;;;;;;57.92;31.90;;;5.10;97.40;;;;;;5158002;27;20039;-79
2022/01/16 07:26:08;;;;;;;50.33;28.65;;;5.10;97.30;;;;;;5141375;27;20163;-79
2022/01/16 07:28:34;;;;;;;48.83;29.23;;;5.10;97.30;;;;;;5157879;27;20507;-79
2022/01/16 07:31:00;;;;;;;48.70;27.48;;;5.10;97.20;;;;;;5140487;27;20042;-79
2022/01/16 07:33:26;;;;;;;51.75;30.40;;;5.10;97.20;;;;;;5140514;27;20513;-79
2022/01/16 07:35:52;;;;;;;47.67;28.20;;;5.10;97.10;;;;;;5157885;27;20043;-80
2022/01/16 07:38:18;;;;;;;52.03;29.92;;;5.10;96.80;;;;;;5157810;27;20075;-79
2022/01/16 07:40:43;;;;;;;48.50;27.23;;;5.10;96.70;;;;;;5123194;27;20073;-80
2022/01/16 07:43:09;;;;;;;49.33;29.30;;;5.10;96.70;;;;;;5123176;27;20397;-80
2022/01/16 07:45:37;;;;;;;48.50;28.48;;;5.10;96.50;;;;;;5123411;27;20074;-80
2022/01/16 07:48:05;;;;;;;50.38;28.75;;;5.10;96.60;;;;;;5157604;27;20083;-80
2022/01/16 07:50:31;;;;;;;48.72;28.70;;;5.10;96.60;;;;;;5157675;27;20034;-79
2022/01/16 07:52:57;;;;;;;45.58;28.77;;;5.10;96.50;;;;;;5157298;27;20447;-79
2022/01/16 07:55:25;;;;;;;47.47;28.48;;;5.10;96.50;;;;;;5140307;27;20079;-79
2022/01/16 07:57:52;;;;;;;47.53;27.48;;;5.10;96.50;;;;;;5140575;27;20073;-79
2022/01/16 08:00:19;;;;;;;47.50;28.45;;;5.10;96.50;;;;;;5156867;27;20037;-79
2022/01/16 08:02:44;;;;;;;57.13;29.85;;;5.10;96.60;;;;;;5157483;27;20482;-79
2022/01/16 08:05:10;;;;;;;56.13;30.40;;;5.10;96.60;;;;;;5140038;27;20046;-79
2022/01/16 08:07:36;;;;;;;54.95;30.75;;;5.10;96.70;;;;;;5106263;27;20046;-79
2022/01/16 08:10:02;;;;;;;50.47;29.90;;;5.10;96.80;;;;;;5122997;27;20504;-79
2022/01/16 08:12:27;;;;;;;54.67;27.27;;;5.10;96.70;;;;;;5157535;27;20042;-79
2022/01/16 08:14:53;;;;;;;46.72;28.45;;;5.20;96.80;;;;;;5139987;27;20482;-80
2022/01/16 08:17:19;;;;;;;46.85;28.08;;;5.20;96.60;;;;;;5140316;27;20038;-79
2022/01/16 08:19:44;;;;;;;40.33;25.83;;;5.30;96.60;;;;;;5139938;27;20485;-79
2022/01/16 08:22:10;;;;;;;51.08;26.05;;;5.30;96.60;;;;;;5140010;27;20393;-79
2022/01/16 08:24:36;;;;;;;55.97;28.77;;;5.30;96.60;;;;;;5157391;27;20074;-79
2022/01/16 08:27:02;;;;;;;56.38;32.92;;;5.40;96.50;;;;;;5157243;27;20527;-79
2022/01/16 08:29:28;;;;;;;46.33;27.48;;;5.50;96.20;;;;;;5157104;27;20651;-79
2022/01/16 08:31:54;;;;;;;45.60;25.45;;;5.50;96.30;;;;;;5157145;27;20068;-79
2022/01/16 08:34:20;;;;;;;44.00;26.80;;;5.60;96.40;;;;;;5157163;27;20079;-79
2022/01/16 08:36:46;;;;;;;39.45;25.73;;;5.60;96.30;;;;;;5139566;27;20387;-79
2022/01/16 08:39:14;;;;;;;48.20;26.10;;;5.60;96.50;;;;;;5156483;27;20048;-79
2022/01/16 08:41:40;;;;;;;46.13;27.67;;;5.70;96.30;;;;;;5156938;27;20038;-79
2022/01/16 08:44:06;;;;;;;43.42;24.80;;;5.70;96.30;;;;;;5139125;27;20034;-78
2022/01/16 08:46:33;;;;;;;49.42;29.08;;;5.70;96.40;;;;;;5156381;27;20077;-79
2022/01/16 08:49:00;;;;;;;43.92;25.77;;;5.70;96.40;;;;;;5139889;27;20046;-79
2022/01/16 08:51:26;;;;;;;47.50;26.80;;;5.70;96.40;;;;;;5139766;27;20038;-79
2022/01/16 08:53:52;;;;;;;47.63;28.15;;;5.80;96.40;;;;;;5157005;27;20069;-79
2022/01/16 08:56:18;;;;;;;45.42;26.55;;;5.80;96.40;;;;;;5156753;27;20042;-80
2022/01/16 08:58:44;;;;;;;43.95;25.45;;;5.90;96.30;;;;;;5156912;27;20110;-79
2022/01/16 09:01:10;;;;;;;41.30;25.55;;;5.80;96.40;;;;;;5139815;27;20651;-79
2022/01/16 09:03:38;;;;;;;51.92;26.88;;;5.90;96.50;;;;;;5139479;27;20087;-79
2022/01/16 09:06:03;;;;;;;47.15;25.38;;;5.90;96.40;;;;;;5156922;27;20034;-79
2022/01/16 09:08:29;;;;;;;42.83;25.17;;;5.90;96.40;;;;;;5139027;27;20512;-79
2022/01/16 09:10:55;;;;;;;45.72;23.85;;;6.00;96.50;;;;;;5156243;27;20075;-78
2022/01/16 09:13:21;;;;;;;41.35;22.70;;;6.00;96.40;;;;;;5156915;27;20042;-78
2022/01/16 09:15:49;;;;;;;37.25;24.23;;;6.00;96.40;;;;;;5160352;27;20121;-79
2022/01/16 09:18:16;;;;;;;41.20;22.30;;;6.10;96.30;;;;;;5143229;27;20034;-79
2022/01/16 09:20:42;;;;;;;45.22;23.25;;;6.10;96.30;;;;;;5125922;27;20534;-79
2022/01/16 09:23:09;;;;;;;34.00;21.02;;;6.10;96.10;;;;;;5125831;27;20042;-79
2022/01/16 09:25:35;;;;;;;35.47;20.63;;;6.10;96.20;;;;;;5142862;27;20124;-79
2022/01/16 09:28:00;;;;;;;47.30;23.33;;;6.10;96.10;;;;;;5108891;27;20117;-79
2022/01/16 09:30:27;;;;;;;49.70;24.23;;;6.10;96.10;;;;;;5160270;27;20034;-79
2022/01/16 09:32:53;;;;;;;38.72;21.35;;;6.20;96.00;;;;;;5160106;27;20083;-79
2022/01/16 09:35:19;;;;;;;42.72;21.10;;;6.10;96.00;;;;;;5142942;27;20134;-79
2022/01/16 09:37:46;;;;;;;35.67;19.83;;;6.10;96.10;;;;;;5142924;27;20073;-79
2022/01/16 09:40:15;;;;;;;35.58;19.70;;;6.20;96.00;;;;;;5159728;27;20050;-80
2022/01/16 09:42:41;;;;;;;31.70;18.00;;;6.20;96.00;;;;;;5142278;27;20077;-79
2022/01/16 09:45:10;;;;;;;35.33;19.42;;;6.30;95.80;;;;;;5159770;27;20046;-80
2022/01/16 09:47:37;;;;;;;30.42;17.27;;;6.20;95.70;;;;;;5142440;27;20086;-79
2022/01/16 09:50:05;;;;;;;33.13;16.58;;;6.30;95.60;;;;;;5159770;27;20054;-80
2022/01/16 09:52:41;;;;;;;38.15;18.00;;;6.40;95.40;;;;;;5142375;27;20046;-80
2022/01/16 09:55:08;;;;;;;34.38;16.80;;;6.30;95.50;;;;;;5142710;27;20091;-79
2022/01/16 09:57:34;;;;;;;35.47;17.75;;;6.40;95.10;;;;;;5159827;27;20117;-79
2022/01/16 10:00:01;;;;;;;27.83;14.77;;;6.40;95.20;;;;;;5159078;27;20121;-78
2022/01/16 10:02:26;;;;;;;29.35;14.85;;;6.50;95.00;;;;;;5157161;27;20529;-79
2022/01/16 10:04:53;;;;;;;35.08;15.80;;;6.50;94.90;;;;;;5120045;27;20074;-80
2022/01/16 10:07:20;;;;;;;27.73;14.90;;;6.50;95.10;;;;;;5141650;27;20038;-80
2022/01/16 10:10:09;;;;;;;29.13;15.48;;;6.50;94.90;;;;;;5158514;27;20038;-80
2022/01/16 10:12:35;;;;;;;28.25;14.57;;;6.50;94.70;;;;;;5155949;27;20481;-80
2022/01/16 10:15:26;;;;;;;27.38;14.30;;;6.50;94.60;;;;;;5141413;27;20050;-80
2022/01/16 10:17:56;;;;;;;32.15;16.48;;;6.50;94.80;;;;;;5141173;27;20082;-81
2022/01/16 10:20:23;;;;;;;27.20;14.50;;;6.60;94.30;;;;;;5141184;27;20046;-80
2022/01/16 10:22:57;;;;;;;25.88;13.93;;;6.60;94.40;;;;;;5141256;27;20068;-80
2022/01/16 10:25:41;;;;;;;20.27;11.18;;;6.60;94.50;;;;;;5158777;27;20038;-80
2022/01/16 10:28:33;;;;;;;29.90;12.00;;;6.60;94.40;;;;;;5158603;27;20034;-81
2022/01/16 10:30:59;;;;;;;26.40;13.20;;;6.60;94.30;;;;;;5153750;27;20046;-80
2022/01/16 10:33:27;;;;;;;32.80;12.68;;;6.60;94.10;;;;;;5158320;27;20034;-82
2022/01/16 10:35:55;;;;;;;20.30;10.25;;;6.60;94.00;;;;;;5158580;27;20393;-81
2022/01/16 10:38:24;;;;;;;20.38;10.77;;;6.70;93.80;;;;;;5157934;27;20057;-80
2022/01/16 10:40:55;;;;;;;26.48;10.32;;;6.70;93.60;;;;;;5140701;27;20065;-80
2022/01/16 10:43:35;;;;;;;19.13;9.45;;;6.70;93.50;;;;;;5158240;27;20039;-80
2022/01/16 10:46:01;;;;;;;24.13;9.07;;;6.60;93.70;;;;;;5158449;27;20030;-80
2022/01/16 10:48:27;;;;;;;19.63;9.73;;;6.70;93.50;;;;;;5140980;27;20117;-80
2022/01/16 10:50:53;;;;;;;18.83;10.00;;;6.70;93.30;;;;;;5140701;27;20195;-79
2022/01/16 10:53:25;;;;;;;19.10;9.60;;;6.70;93.50;;;;;;5140693;27;20038;-79
2022/01/16 10:56:03;;;;;;;22.23;8.75;;;6.70;93.60;;;;;;5158202;27;20049;-80
2022/01/16 10:58:38;;;;;;;23.02;9.93;;;6.70;93.60;;;;;;5158131;27;20042;-80
2022/01/16 11:01:11;;;;;;;30.30;10.88;;;6.80;93.40;;;;;;5140715;27;20431;-80
2022/01/16 11:03:45;;;;;;;25.45;9.88;;;6.80;93.30;;;;;;5157825;27;20049;-80
2022/01/16 11:06:15;;;;;;;23.63;9.10;;;6.80;93.30;;;;;;5157806;27;20121;-80
2022/01/16 11:08:49;;;;;;;19.42;9.48;;;6.70;93.50;;;;;;5157664;27;20038;-79
2022/01/16 11:11:15;;;;;;;22.52;11.35;;;6.80;93.60;;;;;;5157984;27;20039;-80
2022/01/16 11:13:41;;;;;;;24.90;10.55;;;6.80;93.40;;;;;;5157501;27;20038;-79
2022/01/16 11:16:08;;;;;;;18.55;9.68;;;6.80;93.30;;;;;;5123509;27;20052;-79
2022/01/16 11:18:38;;;;;;;29.88;11.05;;;6.80;93.70;;;;;;5123155;27;20048;-80
2022/01/16 11:23:46;;;;;;;27.42;10.40;;;6.80;93.70;;;;;;5157596;27;20086;-80
2022/01/16 11:26:13;;;;;;;19.85;9.35;;;6.90;93.40;;;;;;5142181;27;20034;-80
2022/01/16 11:28:39;;;;;;;21.73;9.85;;;6.90;93.60;;;;;;5123052;27;20053;-80
2022/01/16 11:31:09;;;;;;;18.35;9.85;;;6.90;93.40;;;;;;5157522;27;20034;-80
2022/01/16 11:33:36;;;;;;;19.88;10.15;;;6.90;93.30;;;;;;5140118;27;20101;-80
2022/01/16 11:36:03;;;;;;;24.25;9.00;;;7.00;93.10;;;;;;5156478;27;20041;-80
2022/01/16 11:38:33;;;;;;;17.55;9.85;;;7.00;92.70;;;;;;5157045;27;20061;-80
2022/01/16 11:41:13;;;;;;;20.50;10.40;;;7.00;92.20;;;;;;5157045;27;20046;-80
2022/01/16 11:43:41;;;;;;;21.45;10.60;;;7.00;92.00;;;;;;5157030;27;20041;-80
2022/01/16 11:46:12;;;;;;;20.30;10.07;;;7.10;91.70;;;;;;5157119;27;20042;-80
2022/01/16 11:48:41;;;;;;;21.63;10.10;;;7.10;91.50;;;;;;5157332;27;20034;-80
2022/01/16 11:51:36;;;;;;;21.00;10.50;;;7.10;91.40;;;;;;5139495;27;20065;-79
2022/01/16 11:54:02;;;;;;;20.48;8.98;;;7.10;91.20;;;;;;5157404;27;20378;-80
2022/01/16 11:56:40;;;;;;;18.23;8.65;;;7.10;91.00;;;;;;5157227;27;20046;-80
2022/01/16 11:59:16;;;;;;;16.63;9.20;;;7.10;91.10;;;;;;5157085;27;20118;-80
2022/01/16 12:01:47;;;;;;;15.73;9.20;;;7.10;91.10;;;;;;5156854;27;20046;-80
2022/01/16 12:04:31;;;;;;;18.65;9.90;;;7.10;91.20;;;;;;5157187;27;20065;-80
2022/01/16 12:07:03;;;;;;;19.63;9.45;;;7.20;91.20;;;;;;5156747;27;20090;-80
2022/01/16 12:09:39;;;;;;;25.63;10.52;;;7.10;91.10;;;;;;5157152;27;20049;-79
2022/01/16 12:12:14;;;;;;;19.08;9.68;;;7.10;91.20;;;;;;5156799;27;20042;-79
2022/01/16 12:15:03;;;;;;;18.55;9.32;;;7.20;91.20;;;;;;5156766;27;20039;-80
2022/01/16 12:17:42;;;;;;;14.50;8.50;;;7.10;91.30;;;;;;5156788;27;20077;-80
2022/01/16 12:22:55;;;;;;;19.52;11.18;;;7.20;91.30;;;;;;5156641;27;20091;-80
2022/01/16 12:25:28;;;;;;;17.08;9.68;;;7.10;91.20;;;;;;5156960;27;20046;-80
2022/01/16 12:28:00;;;;;;;21.48;9.27;;;7.10;91.40;;;;;;5139557;27;20046;-79
2022/01/16 12:30:28;;;;;;;19.60;10.30;;;7.10;91.50;;;;;;5139304;27;20034;-80
2022/01/16 12:33:09;;;;;;;19.38;9.00;;;7.10;91.50;;;;;;5156874;27;20049;-80
2022/01/16 12:35:54;;;;;;;18.13;9.50;;;7.10;91.40;;;;;;5156645;27;20073;-79
2022/01/16 12:38:31;;;;;;;24.10;11.52;;;7.10;91.40;;;;;;5156545;27;20089;-80
2022/01/16 12:41:00;;;;;;;15.73;9.20;;;7.10;91.50;;;;;;5139189;27;20439;-80
2022/01/16 12:45:53;;;;;;;15.75;9.00;;;7.10;91.50;;;;;;5156509;27;20074;-79
2022/01/16 12:48:19;;;;;;;19.48;9.60;;;7.10;91.80;;;;;;5142748;27;20042;-80
2022/01/16 12:50:44;;;;;;;22.23;9.90;;;7.10;91.80;;;;;;5160649;27;20042;-79
2022/01/16 12:53:13;;;;;;;22.13;9.85;;;7.20;91.70;;;;;;5143067;27;20042;-79
2022/01/16 12:55:39;;;;;;;25.40;9.25;;;7.10;91.80;;;;;;5143148;27;20038;-80
2022/01/16 12:58:15;;;;;;;20.40;10.10;;;7.10;92.00;;;;;;5142816;27;20129;-79
2022/01/16 13:01:05;;;;;;;17.77;9.13;;;7.10;92.20;;;;;;5142925;27;20042;-79
2022/01/16 13:03:34;;;;;;;25.23;10.63;;;7.10;92.20;;;;;;5157206;27;20046;-79
2022/01/16 13:06:21;;;;;;;18.70;8.48;;;7.20;92.10;;;;;;5155972;27;20027;-80
2022/01/16 13:09:02;;;;;;;24.05;9.25;;;7.20;92.30;;;;;;5155249;27;20053;-79
2022/01/16 13:11:48;;;;;;;21.95;9.75;;;7.20;92.30;;;;;;5160901;27;20083;-80
2022/01/16 13:14:25;;;;;;;17.95;8.50;;;7.20;92.50;;;;;;5153946;27;20042;-80
2022/01/16 13:16:59;;;;;;;21.85;8.73;;;7.10;92.50;;;;;;5156956;27;20046;-80
2022/01/16 13:19:28;;;;;;;20.77;8.93;;;7.20;92.60;;;;;;5135725;27;20065;-80
2022/01/16 13:22:11;;;;;;;17.35;8.68;;;7.20;92.90;;;;;;5137078;27;20038;-80
2022/01/16 13:24:47;;;;;;;21.35;9.05;;;7.20;93.00;;;;;;5135965;27;20318;-80
2022/01/16 13:27:24;;;;;;;19.80;8.70;;;7.30;93.00;;;;;;5155090;27;20034;-80
2022/01/16 13:30:01;;;;;;;18.88;8.52;;;7.30;92.80;;;;;;5154337;27;20042;-79
2022/01/16 13:32:35;;;;;;;19.20;10.18;;;7.30;92.80;;;;;;5154101;27;20052;-79